createdAt,value
2023-05-10T00:00:23.514Z,15.20
2023-05-10T00:02:50.402Z,15.30
2023-05-10T00:05:17.543Z,15.30
2023-05-10T00:07:47.375Z,15.30
2023-05-10T00:10:14.332Z,15.30
2023-05-10T00:12:41.450Z,15.30
2023-05-10T00:15:09.012Z,15.30
2023-05-10T00:17:35.777Z,15.30
2023-05-10T00:20:03.033Z,15.30
2023-05-10T00:22:29.716Z,15.20
2023-05-10T00:24:56.433Z,15.10
2023-05-10T00:27:23.219Z,15.00
2023-05-10T00:29:50.014Z,15.00
2023-05-10T00:32:17.571Z,15.00
2023-05-10T00:34:44.293Z,14.90
2023-05-10T00:37:10.998Z,14.90
2023-05-10T00:39:37.686Z,14.90
2023-05-10T00:42:05.521Z,14.90
2023-05-10T00:44:32.369Z,14.90
2023-05-10T00:47:00.560Z,14.90
2023-05-10T00:49:27.608Z,15.00
2023-05-10T00:51:54.389Z,15.00
2023-05-10T00:54:21.640Z,14.90
2023-05-10T00:56:50.119Z,14.90
2023-05-10T00:59:18.816Z,14.90
2023-05-10T01:01:46.563Z,15.00
2023-05-10T01:04:14.455Z,15.00
2023-05-10T01:06:42.021Z,14.90
2023-05-10T01:09:09.017Z,14.80
2023-05-10T01:11:37.356Z,14.80
2023-05-10T01:14:04.551Z,14.80
2023-05-10T01:16:37.082Z,14.80
2023-05-10T01:19:09.288Z,14.80
2023-05-10T01:22:07.303Z,14.70
2023-05-10T01:24:41.093Z,14.70
2023-05-10T01:27:22.988Z,14.80
2023-05-10T01:30:24.070Z,14.80
2023-05-10T01:33:08.001Z,14.70
2023-05-10T01:35:46.675Z,14.60
2023-05-10T01:38:27.601Z,14.60
2023-05-10T01:41:12.940Z,14.70
2023-05-10T01:44:06.951Z,14.70
2023-05-10T01:46:40.548Z,14.70
2023-05-10T01:49:16.004Z,14.70
2023-05-10T01:51:52.937Z,14.70
2023-05-10T01:54:22.961Z,14.70
2023-05-10T01:56:56.106Z,14.80
2023-05-10T01:59:29.011Z,14.90
2023-05-10T02:01:59.522Z,14.90
2023-05-10T02:04:27.132Z,14.90
2023-05-10T02:06:56.131Z,14.90
2023-05-10T02:09:24.481Z,14.90
2023-05-10T02:11:51.807Z,14.90
2023-05-10T02:14:20.062Z,14.90
2023-05-10T02:16:48.281Z,14.80
2023-05-10T02:19:16.470Z,14.80
2023-05-10T02:21:45.471Z,14.80
2023-05-10T02:24:12.867Z,14.80
2023-05-10T02:26:40.294Z,14.80
2023-05-10T02:29:08.539Z,14.80
2023-05-10T02:31:36.475Z,14.80
2023-05-10T02:34:04.990Z,14.80
2023-05-10T02:39:02.704Z,14.90
2023-05-10T02:41:31.114Z,14.80
2023-05-10T02:44:02.153Z,14.70
2023-05-10T02:46:29.037Z,14.60
2023-05-10T02:48:55.977Z,14.60
2023-05-10T02:51:29.322Z,14.50
2023-05-10T02:53:58.266Z,14.50
2023-05-10T02:56:29.692Z,14.40
2023-05-10T02:58:56.745Z,14.30
2023-05-10T03:01:23.771Z,14.30
2023-05-10T03:03:50.610Z,14.30
2023-05-10T03:06:17.536Z,14.30
2023-05-10T03:08:45.712Z,14.30
2023-05-10T03:11:25.990Z,14.30
2023-05-10T03:14:04.878Z,14.30
2023-05-10T03:16:44.784Z,14.30
2023-05-10T03:19:28.468Z,14.30
2023-05-10T03:22:00.549Z,14.30
2023-05-10T03:24:29.196Z,14.20
2023-05-10T03:26:59.620Z,14.20
2023-05-10T03:29:28.425Z,14.20
2023-05-10T03:31:55.724Z,14.20
2023-05-10T03:34:26.237Z,14.20
2023-05-10T03:36:53.255Z,14.20
2023-05-10T03:39:21.257Z,14.20
2023-05-10T03:41:48.014Z,14.20
2023-05-10T03:44:14.690Z,14.10
2023-05-10T03:46:41.382Z,14.10
2023-05-10T03:49:08.140Z,14.20
2023-05-10T03:51:35.198Z,14.10
2023-05-10T03:54:02.058Z,14.10
2023-05-10T03:56:28.763Z,14.10
2023-05-10T03:58:55.496Z,14.10
2023-05-10T04:01:22.156Z,14.20
2023-05-10T04:03:49.029Z,14.10
2023-05-10T04:06:17.171Z,14.10
2023-05-10T04:08:43.903Z,14.10
2023-05-10T04:11:13.627Z,14.10
2023-05-10T04:13:40.475Z,14.20
2023-05-10T04:16:07.401Z,14.10
2023-05-10T04:18:34.118Z,14.10
2023-05-10T04:21:00.876Z,14.00
2023-05-10T04:23:28.662Z,14.10
2023-05-10T04:26:01.551Z,14.00
2023-05-10T04:28:28.276Z,14.00
2023-05-10T04:31:01.341Z,14.00
2023-05-10T04:33:28.118Z,13.90
2023-05-10T04:35:54.842Z,14.00
2023-05-10T04:38:21.562Z,14.00
2023-05-10T04:40:48.506Z,14.00
2023-05-10T04:43:15.305Z,14.00
2023-05-10T04:45:42.056Z,14.00
2023-05-10T04:48:08.805Z,14.00
2023-05-10T04:50:35.536Z,13.90
2023-05-10T04:53:02.388Z,13.80
2023-05-10T04:55:29.103Z,13.80
2023-05-10T04:57:57.793Z,13.70
2023-05-10T05:00:24.641Z,13.60
2023-05-10T05:02:51.424Z,13.60
2023-05-10T05:05:18.231Z,13.50
2023-05-10T05:07:44.956Z,13.40
2023-05-10T05:10:11.659Z,13.40
2023-05-10T05:12:38.414Z,13.40
2023-05-10T05:15:06.765Z,13.40
2023-05-10T05:17:35.296Z,13.40
2023-05-10T05:22:29.552Z,13.30
2023-05-10T05:24:57.467Z,13.30
2023-05-10T05:27:25.346Z,13.30
2023-05-10T05:29:54.079Z,13.30
2023-05-10T05:32:20.922Z,13.30
2023-05-10T05:34:47.714Z,13.30
2023-05-10T05:37:18.788Z,13.40
2023-05-10T05:39:46.470Z,13.30
2023-05-10T05:42:14.316Z,13.30
2023-05-10T05:44:41.288Z,13.40
2023-05-10T05:47:07.969Z,13.40
2023-05-10T05:49:34.773Z,13.30
2023-05-10T05:52:02.373Z,13.30
2023-05-10T05:54:29.480Z,13.30
2023-05-10T05:56:58.041Z,13.30
2023-05-10T05:59:25.978Z,13.30
2023-05-10T06:01:52.785Z,13.40
2023-05-10T06:04:19.955Z,13.40
2023-05-10T06:06:46.824Z,13.40
2023-05-10T06:09:13.828Z,13.30
2023-05-10T06:11:40.596Z,13.40
2023-05-10T06:14:08.819Z,13.40
2023-05-10T06:16:36.036Z,13.40
2023-05-10T06:19:03.437Z,13.30
2023-05-10T06:21:30.980Z,13.30
2023-05-10T06:23:57.952Z,13.20
2023-05-10T06:26:24.821Z,13.30
2023-05-10T06:28:51.616Z,13.30
2023-05-10T06:31:18.803Z,13.30
2023-05-10T06:33:45.702Z,13.30
2023-05-10T06:36:12.454Z,13.40
2023-05-10T06:38:39.216Z,13.50
2023-05-10T06:41:06.459Z,13.50
2023-05-10T06:43:33.272Z,13.50
2023-05-10T06:46:00.599Z,13.60
2023-05-10T06:48:27.379Z,13.50
2023-05-10T06:50:54.141Z,13.50
2023-05-10T06:53:20.842Z,13.60
2023-05-10T06:55:47.600Z,13.60
2023-05-10T06:58:14.283Z,13.60
2023-05-10T07:00:43.719Z,13.50
2023-05-10T07:03:11.716Z,13.50
2023-05-10T07:05:38.774Z,13.50
2023-05-10T07:08:05.755Z,13.50
2023-05-10T07:10:32.552Z,13.50
2023-05-10T07:12:59.310Z,13.50
2023-05-10T07:17:53.412Z,13.70
2023-05-10T07:20:22.832Z,13.70
2023-05-10T07:22:49.514Z,13.80
2023-05-10T07:25:16.526Z,13.80
2023-05-10T07:27:43.376Z,14.00
2023-05-10T07:30:10.457Z,14.00
2023-05-10T07:32:37.394Z,13.90
2023-05-10T07:35:04.438Z,13.90
2023-05-10T07:37:31.185Z,13.90
2023-05-10T07:39:57.976Z,13.90
2023-05-10T07:42:24.846Z,13.90
2023-05-10T07:44:52.128Z,14.10
2023-05-10T07:47:18.939Z,14.20
2023-05-10T07:49:45.737Z,14.20
2023-05-10T07:52:12.827Z,14.20
2023-05-10T07:54:39.555Z,14.20
2023-05-10T07:57:06.308Z,14.30
2023-05-10T07:59:34.006Z,14.30
2023-05-10T08:02:01.696Z,14.30
2023-05-10T08:04:28.498Z,14.40
2023-05-10T08:06:55.353Z,14.50
2023-05-10T08:09:24.897Z,14.60
2023-05-10T08:11:51.996Z,14.60
2023-05-10T08:14:19.118Z,14.50
2023-05-10T08:16:45.886Z,14.60
2023-05-10T08:19:12.674Z,14.70
2023-05-10T08:21:41.431Z,14.70
2023-05-10T08:24:08.286Z,14.90
2023-05-10T08:26:35.052Z,14.90
2023-05-10T08:29:01.832Z,15.00
2023-05-10T08:31:28.573Z,15.00
2023-05-10T08:33:55.353Z,14.90
2023-05-10T08:36:25.063Z,14.90
2023-05-10T08:38:53.054Z,14.90
2023-05-10T08:41:22.130Z,14.90
2023-05-10T08:43:51.111Z,15.00
2023-05-10T08:46:19.774Z,15.10
2023-05-10T08:48:48.279Z,15.20
2023-05-10T08:51:18.766Z,15.50
2023-05-10T08:53:46.509Z,15.70
2023-05-10T08:56:13.602Z,15.80
2023-05-10T08:58:40.468Z,15.90
2023-05-10T09:01:07.694Z,15.70
2023-05-10T09:03:34.658Z,15.70
2023-05-10T09:06:01.488Z,15.70
2023-05-10T09:08:28.664Z,15.70
2023-05-10T09:10:58.812Z,15.70
2023-05-10T09:13:26.986Z,15.80
2023-05-10T09:15:54.668Z,15.80
2023-05-10T09:18:21.427Z,15.70
2023-05-10T09:20:49.391Z,15.70
2023-05-10T09:23:16.213Z,15.50
2023-05-10T09:25:43.253Z,15.40
2023-05-10T09:28:10.898Z,15.60
2023-05-10T09:30:38.515Z,15.70
2023-05-10T09:33:05.452Z,16.00
2023-05-10T09:35:34.452Z,16.20
2023-05-10T09:38:05.345Z,16.70
2023-05-10T09:40:32.472Z,17.10
2023-05-10T09:43:04.635Z,17.20
2023-05-10T09:45:32.756Z,17.40
2023-05-10T09:48:01.584Z,17.70
2023-05-10T09:50:29.378Z,17.70
2023-05-10T09:52:56.052Z,17.40
2023-05-10T09:55:25.577Z,17.10
2023-05-10T09:58:01.143Z,17.30
2023-05-10T10:00:29.138Z,17.50
2023-05-10T10:03:00.477Z,17.30
2023-05-10T10:05:31.350Z,17.30
2023-05-10T10:08:05.302Z,17.30
2023-05-10T10:10:33.861Z,17.40
2023-05-10T10:13:01.213Z,17.60
2023-05-10T10:15:28.045Z,17.60
2023-05-10T10:17:55.397Z,17.40
2023-05-10T10:20:23.698Z,17.50
2023-05-10T10:22:50.606Z,17.20
2023-05-10T10:25:19.851Z,17.20
2023-05-10T10:27:52.425Z,17.20
2023-05-10T10:30:44.683Z,17.00
2023-05-10T10:33:33.190Z,16.90
2023-05-10T10:36:01.501Z,17.30
2023-05-10T10:38:43.529Z,17.40
2023-05-10T10:41:29.151Z,17.60
2023-05-10T10:44:27.263Z,17.50
2023-05-10T10:47:24.065Z,17.80
2023-05-10T10:49:55.827Z,18.30
2023-05-10T10:52:34.114Z,18.30
2023-05-10T10:55:12.701Z,18.60
2023-05-10T10:57:42.418Z,18.60
2023-05-10T11:00:28.425Z,18.70
2023-05-10T11:03:03.505Z,18.70
2023-05-10T11:05:50.693Z,19.00
2023-05-10T11:08:28.646Z,19.10
2023-05-10T11:11:01.376Z,19.40
2023-05-10T11:13:44.641Z,18.90
2023-05-10T11:16:18.912Z,18.90
2023-05-10T11:19:02.701Z,19.30
2023-05-10T11:21:31.394Z,19.60
2023-05-10T11:24:06.749Z,19.60
2023-05-10T11:26:36.124Z,19.80
2023-05-10T11:29:04.078Z,20.20
2023-05-10T11:31:31.009Z,20.60
2023-05-10T11:33:59.452Z,20.50
2023-05-10T11:36:28.493Z,20.20
2023-05-10T11:38:57.321Z,20.20
2023-05-10T11:41:25.659Z,20.50
2023-05-10T11:43:54.356Z,20.90
2023-05-10T11:46:22.941Z,20.80
2023-05-10T11:48:55.043Z,20.70
2023-05-10T11:51:23.261Z,20.80
2023-05-10T11:53:52.311Z,21.20
2023-05-10T11:56:19.116Z,21.00
2023-05-10T11:58:48.076Z,20.70
2023-05-10T12:01:14.930Z,20.20
2023-05-10T12:03:42.144Z,20.20
2023-05-10T12:06:09.220Z,20.30
2023-05-10T12:08:36.157Z,20.70
2023-05-10T12:11:08.484Z,20.60
2023-05-10T12:13:42.770Z,20.60
2023-05-10T12:16:18.071Z,21.00
2023-05-10T12:18:45.646Z,20.80
2023-05-10T12:21:13.459Z,20.80
2023-05-10T12:23:40.882Z,20.80
2023-05-10T12:26:09.730Z,20.80
2023-05-10T12:28:36.581Z,21.00
2023-05-10T12:31:04.201Z,21.10
2023-05-10T12:33:45.654Z,21.60
2023-05-10T12:36:13.784Z,21.80
2023-05-10T12:38:44.217Z,22.00
2023-05-10T12:41:16.886Z,22.10
2023-05-10T12:43:43.922Z,21.90
2023-05-10T12:46:11.764Z,21.90
2023-05-10T12:48:40.250Z,21.60
2023-05-10T12:51:12.753Z,21.30
2023-05-10T12:53:41.816Z,21.30
2023-05-10T12:56:11.046Z,21.10
2023-05-10T12:58:37.818Z,20.60
2023-05-10T13:01:06.142Z,20.60
2023-05-10T13:03:33.396Z,20.50
2023-05-10T13:06:00.220Z,20.40
2023-05-10T13:08:27.110Z,20.60
2023-05-10T13:10:54.171Z,20.60
2023-05-10T13:13:21.065Z,20.90
2023-05-10T13:15:47.839Z,21.20
2023-05-10T13:18:14.580Z,21.30
2023-05-10T13:20:41.642Z,21.40
2023-05-10T13:23:08.451Z,21.20
2023-05-10T13:25:35.416Z,21.20
2023-05-10T13:28:02.447Z,21.10
2023-05-10T13:30:29.920Z,21.00
2023-05-10T13:32:56.721Z,20.60
2023-05-10T13:35:23.636Z,20.60
2023-05-10T13:37:50.438Z,20.50
2023-05-10T13:40:17.987Z,20.40
2023-05-10T13:42:44.943Z,20.20
2023-05-10T13:45:13.250Z,20.00
2023-05-10T13:47:40.374Z,19.80
2023-05-10T13:50:07.810Z,19.70
2023-05-10T13:52:34.821Z,19.70
2023-05-10T13:55:01.656Z,19.60
2023-05-10T13:57:29.823Z,19.50
2023-05-10T13:59:58.317Z,19.40
2023-05-10T14:02:25.777Z,19.50
2023-05-10T14:04:52.753Z,19.40
2023-05-10T14:07:20.099Z,19.20
2023-05-10T14:09:46.947Z,19.10
2023-05-10T14:12:15.491Z,18.70
2023-05-10T14:14:42.273Z,18.60
2023-05-10T14:17:11.466Z,18.50
2023-05-10T14:19:39.878Z,18.50
2023-05-10T14:22:07.060Z,18.40
2023-05-10T14:24:33.785Z,18.20
2023-05-10T14:29:28.305Z,17.30
2023-05-10T14:31:55.136Z,17.10
2023-05-10T14:34:22.076Z,17.10
2023-05-10T14:36:48.861Z,16.90
2023-05-10T14:39:15.672Z,16.90
2023-05-10T14:41:43.921Z,16.90
2023-05-10T14:44:11.515Z,17.20
2023-05-10T14:46:38.634Z,17.30
2023-05-10T14:49:05.378Z,17.70
2023-05-10T14:51:32.724Z,17.80
2023-05-10T14:53:59.859Z,17.70
2023-05-10T14:56:29.318Z,17.60
2023-05-10T14:58:56.533Z,17.70
2023-05-10T15:01:23.828Z,17.60
2023-05-10T15:03:51.701Z,17.60
2023-05-10T15:06:25.115Z,17.40
2023-05-10T15:08:52.626Z,17.30
2023-05-10T15:11:19.755Z,17.00
2023-05-10T15:13:46.516Z,17.00
2023-05-10T15:16:13.340Z,17.10
2023-05-10T15:18:40.105Z,17.10
2023-05-10T15:21:06.909Z,17.10
2023-05-10T15:23:33.762Z,17.10
2023-05-10T15:26:01.715Z,17.30
2023-05-10T15:28:28.566Z,17.30
2023-05-10T15:30:55.873Z,17.20
2023-05-10T15:33:22.993Z,17.10
2023-05-10T15:35:49.866Z,17.10
2023-05-10T15:38:16.689Z,17.20
2023-05-10T15:40:43.405Z,17.10
2023-05-10T15:43:10.184Z,17.10
2023-05-10T15:45:37.754Z,17.10
2023-05-10T15:48:04.954Z,17.30
2023-05-10T15:50:31.919Z,17.30
2023-05-10T15:52:58.626Z,17.10
2023-05-10T15:55:26.379Z,17.10
2023-05-10T15:57:53.284Z,17.10
2023-05-10T16:00:20.296Z,17.20
2023-05-10T16:02:47.079Z,17.30
2023-05-10T16:05:14.057Z,17.30
2023-05-10T16:07:42.077Z,17.30
2023-05-10T16:10:10.867Z,17.20
2023-05-10T16:12:37.938Z,17.20
2023-05-10T16:15:05.352Z,17.20
2023-05-10T16:17:32.327Z,17.10
2023-05-10T16:19:59.144Z,17.10
2023-05-10T16:22:29.624Z,17.10
2023-05-10T16:24:59.648Z,17.20
2023-05-10T16:27:28.701Z,17.20
2023-05-10T16:29:55.695Z,17.20
2023-05-10T16:32:22.589Z,17.20
2023-05-10T16:34:50.241Z,17.30
2023-05-10T16:37:17.550Z,17.20
2023-05-10T16:39:44.405Z,17.10
2023-05-10T16:42:11.171Z,17.00
2023-05-10T16:44:37.948Z,17.00
2023-05-10T16:47:04.796Z,17.00
2023-05-10T16:49:31.591Z,17.00
2023-05-10T16:51:58.331Z,17.00
2023-05-10T16:54:25.169Z,16.90
2023-05-10T16:56:52.036Z,16.90
2023-05-10T16:59:18.865Z,16.60
2023-05-10T17:01:46.999Z,16.60
2023-05-10T17:04:14.364Z,16.70
2023-05-10T17:06:41.470Z,16.70
2023-05-10T17:09:08.393Z,16.60
2023-05-10T17:11:35.229Z,16.60
2023-05-10T17:14:02.410Z,16.60
2023-05-10T17:16:30.258Z,16.50
2023-05-10T17:18:57.228Z,16.50
2023-05-10T17:21:24.061Z,16.40
2023-05-10T17:23:50.756Z,16.40
2023-05-10T17:26:17.584Z,16.20
2023-05-10T17:28:44.358Z,16.00
2023-05-10T17:31:11.718Z,15.90
2023-05-10T17:33:38.708Z,15.90
2023-05-10T17:36:05.709Z,15.90
2023-05-10T17:38:32.452Z,15.80
2023-05-10T17:40:59.209Z,15.60
2023-05-10T17:43:26.160Z,15.60
2023-05-10T17:45:53.075Z,15.60
2023-05-10T17:48:20.104Z,15.40
2023-05-10T17:50:46.983Z,15.30
2023-05-10T17:53:13.761Z,15.30
2023-05-10T17:55:41.605Z,15.20
2023-05-10T17:58:10.840Z,15.20
2023-05-10T18:00:38.366Z,15.20
2023-05-10T18:03:05.836Z,15.20
2023-05-10T18:05:37.128Z,15.20
2023-05-10T18:08:04.641Z,15.20
2023-05-10T18:10:31.989Z,15.20
2023-05-10T18:12:58.784Z,15.30
2023-05-10T18:15:27.693Z,15.30
2023-05-10T18:17:55.831Z,15.00
2023-05-10T18:20:23.132Z,14.90
2023-05-10T18:22:50.087Z,14.90
2023-05-10T18:25:17.416Z,14.90
2023-05-10T18:27:44.598Z,14.90
2023-05-10T18:30:12.606Z,14.90
2023-05-10T18:32:39.767Z,15.00
2023-05-10T18:35:08.091Z,15.00
2023-05-10T18:37:36.343Z,15.10
2023-05-10T18:40:05.020Z,15.20
2023-05-10T18:42:32.061Z,15.10
2023-05-10T18:44:58.947Z,15.00
2023-05-10T18:47:26.717Z,15.00
2023-05-10T18:49:53.557Z,14.90
2023-05-10T18:52:20.403Z,14.90
2023-05-10T18:54:47.495Z,14.80
2023-05-10T18:57:14.345Z,14.80
2023-05-10T18:59:41.133Z,14.80
2023-05-10T19:02:08.382Z,14.80
2023-05-10T19:04:35.232Z,14.90
2023-05-10T19:07:03.131Z,14.90
2023-05-10T19:09:29.977Z,14.90
2023-05-10T19:11:56.898Z,15.00
2023-05-10T19:14:25.332Z,15.00
2023-05-10T19:16:53.429Z,15.00
2023-05-10T19:19:21.253Z,15.00
2023-05-10T19:21:48.198Z,14.90
2023-05-10T19:24:15.135Z,14.90
2023-05-10T19:26:41.972Z,14.90
2023-05-10T19:29:09.417Z,14.90
2023-05-10T19:31:36.359Z,14.90
2023-05-10T19:34:05.403Z,14.90
2023-05-10T19:36:32.764Z,14.90
2023-05-10T19:39:00.170Z,14.90
2023-05-10T19:41:27.050Z,14.90
2023-05-10T19:43:54.787Z,14.90
2023-05-10T19:46:21.724Z,14.80
2023-05-10T19:48:50.185Z,14.80
2023-05-10T19:51:16.977Z,14.70
2023-05-10T19:53:44.839Z,14.70
2023-05-10T19:56:12.760Z,14.70
2023-05-10T19:58:40.077Z,14.70
2023-05-10T20:01:07.979Z,14.80
2023-05-10T20:03:36.168Z,14.80
2023-05-10T20:06:04.067Z,14.80
2023-05-10T20:08:31.513Z,14.80
2023-05-10T20:11:00.540Z,14.70
2023-05-10T20:13:27.308Z,14.70
2023-05-10T20:16:00.461Z,14.70
2023-05-10T20:18:27.308Z,14.80
2023-05-10T20:20:55.587Z,14.80
2023-05-10T20:23:22.736Z,14.80
2023-05-10T20:25:50.441Z,14.80
2023-05-10T20:28:25.273Z,14.80
2023-05-10T20:30:54.893Z,14.80
2023-05-10T20:33:22.450Z,14.70
2023-05-10T20:35:50.384Z,14.70
2023-05-10T20:38:18.243Z,14.60
2023-05-10T20:40:45.229Z,14.60
2023-05-10T20:43:12.018Z,14.60
2023-05-10T20:45:38.898Z,14.50
2023-05-10T20:48:05.981Z,14.50
2023-05-10T20:50:32.793Z,14.50
2023-05-10T20:53:00.596Z,14.50
2023-05-10T20:55:28.417Z,14.50
2023-05-10T20:57:55.244Z,14.60
2023-05-10T21:00:22.145Z,14.60
2023-05-10T21:02:48.938Z,14.60
2023-05-10T21:05:16.835Z,14.50
2023-05-10T21:07:43.648Z,14.50
2023-05-10T21:10:11.655Z,14.40
2023-05-10T21:12:38.438Z,14.50
2023-05-10T21:15:05.642Z,14.50
2023-05-10T21:17:32.456Z,14.50
2023-05-10T21:19:59.191Z,14.50
2023-05-10T21:22:26.442Z,14.50
2023-05-10T21:24:53.256Z,14.50
2023-05-10T21:27:20.071Z,14.50
2023-05-10T21:29:46.821Z,14.50
2023-05-10T21:32:14.813Z,14.60
2023-05-10T21:34:41.781Z,14.60
2023-05-10T21:37:08.611Z,14.60
2023-05-10T21:39:35.901Z,14.60
2023-05-10T21:42:03.597Z,14.60
2023-05-10T21:44:31.441Z,14.60
2023-05-10T21:46:58.245Z,14.60
2023-05-10T21:49:25.003Z,14.60
2023-05-10T21:51:51.749Z,14.60
2023-05-10T21:54:18.561Z,14.60
2023-05-10T21:56:45.341Z,14.60
2023-05-10T21:59:12.247Z,14.50
2023-05-10T22:01:39.074Z,14.40
2023-05-10T22:04:05.861Z,14.50
2023-05-10T22:06:32.805Z,14.40
2023-05-10T22:08:59.658Z,14.40
2023-05-10T22:11:27.368Z,14.50
2023-05-10T22:13:54.173Z,14.50
2023-05-10T22:16:21.096Z,14.50
2023-05-10T22:18:47.880Z,14.40
2023-05-10T22:23:42.071Z,14.30
2023-05-10T22:26:08.910Z,14.20
2023-05-10T22:28:35.679Z,14.30
2023-05-10T22:31:02.474Z,14.30
2023-05-10T22:33:29.289Z,14.30
2023-05-10T22:35:56.149Z,14.40
2023-05-10T22:38:22.897Z,14.30
2023-05-10T22:40:49.728Z,14.30
2023-05-10T22:43:16.926Z,14.30
2023-05-10T22:45:43.823Z,14.20
2023-05-10T22:48:10.720Z,14.20
2023-05-10T22:50:37.552Z,14.20
2023-05-10T22:53:04.338Z,14.20
2023-05-10T22:55:31.175Z,14.10
2023-05-10T22:57:58.040Z,14.10
2023-05-10T23:00:24.886Z,14.10
2023-05-10T23:02:51.686Z,14.10
2023-05-10T23:05:18.588Z,14.00
2023-05-10T23:07:45.370Z,14.00
2023-05-10T23:10:12.276Z,14.00
2023-05-10T23:12:39.003Z,14.10
2023-05-10T23:15:06.286Z,14.20
2023-05-10T23:17:33.074Z,14.10
2023-05-10T23:19:59.758Z,14.10
2023-05-10T23:22:26.579Z,14.10
2023-05-10T23:24:53.329Z,14.10
2023-05-10T23:27:20.215Z,14.10
2023-05-10T23:29:47.054Z,14.10
2023-05-10T23:32:13.805Z,14.10
2023-05-10T23:34:40.737Z,14.10
2023-05-10T23:37:07.460Z,14.10
2023-05-10T23:39:34.792Z,14.10
2023-05-10T23:42:01.853Z,14.10
2023-05-10T23:44:28.659Z,14.10
2023-05-10T23:46:55.583Z,14.10
2023-05-10T23:49:22.350Z,14.10
2023-05-10T23:51:49.095Z,14.10
2023-05-10T23:54:15.954Z,14.00
2023-05-10T23:56:42.668Z,14.00
2023-05-10T23:59:09.442Z,14.00
